createdAt,value
2024-02-19T00:02:57.687Z,97119.06
2024-02-19T00:06:59.307Z,97127.84
2024-02-19T00:11:02.367Z,97125.09
2024-02-19T00:15:06.510Z,97112.44
2024-02-19T00:19:08.257Z,97120.84
2024-02-19T00:23:09.848Z,97128.97
2024-02-19T00:27:11.454Z,97127.31
2024-02-19T00:31:13.520Z,97119.78
2024-02-19T00:35:15.128Z,97128.59
2024-02-19T00:39:16.661Z,97122.97
2024-02-19T00:43:18.297Z,97114.31
2024-02-19T00:47:19.904Z,97112.94
2024-02-19T00:51:21.487Z,97108.66
2024-02-19T00:55:23.134Z,97107.25
2024-02-19T00:59:26.553Z,97103.44
2024-02-19T01:03:28.370Z,97110.41
2024-02-19T01:07:29.991Z,97103.16
2024-02-19T01:11:31.653Z,97100.69
2024-02-19T01:15:33.299Z,97095.91
2024-02-19T01:19:35.445Z,97101.22
2024-02-19T01:23:37.561Z,97094.38
2024-02-19T01:27:39.139Z,97090.53
2024-02-19T01:31:40.729Z,97091.06
2024-02-19T01:35:42.625Z,97097.28
2024-02-19T01:43:45.864Z,97088.88
2024-02-19T01:47:47.532Z,97087.78
2024-02-19T01:51:49.844Z,97094.94
2024-02-19T01:55:51.503Z,97087.63
2024-02-19T01:59:54.034Z,97088.53
2024-02-19T02:03:55.970Z,97085.34
2024-02-19T02:07:58.396Z,97085.41
2024-02-19T02:12:00.094Z,97085.78
2024-02-19T02:16:05.726Z,97089.81
2024-02-19T02:20:09.286Z,97078.53
2024-02-19T02:24:11.024Z,97081.97
2024-02-19T02:28:12.675Z,97078.66
2024-02-19T02:32:16.303Z,97074.97
2024-02-19T02:36:17.893Z,97074.16
2024-02-19T02:40:19.489Z,97068.19
2024-02-19T02:44:21.125Z,97066.75
2024-02-19T02:48:23.172Z,97064.00
2024-02-19T02:52:24.872Z,97066.84
2024-02-19T02:56:26.396Z,97064.31
2024-02-19T03:00:27.936Z,97049.38
2024-02-19T03:04:29.588Z,97045.38
2024-02-19T03:08:31.643Z,97037.88
2024-02-19T03:12:33.211Z,97045.06
2024-02-19T03:16:35.544Z,97043.72
2024-02-19T03:20:37.693Z,97047.75
2024-02-19T03:24:39.341Z,97054.31
2024-02-19T03:28:40.982Z,97050.88
2024-02-19T03:32:42.688Z,97053.25
2024-02-19T03:36:51.857Z,97051.84
2024-02-19T03:40:53.419Z,97058.63
2024-02-19T03:44:54.948Z,97054.22
2024-02-19T03:48:56.971Z,97057.50
2024-02-19T03:52:58.615Z,97072.25
2024-02-19T03:57:00.246Z,97073.34
2024-02-19T04:01:02.122Z,97074.34
2024-02-19T04:05:04.581Z,97084.66
2024-02-19T04:09:06.175Z,97087.53
2024-02-19T04:13:07.713Z,97082.91
2024-02-19T04:17:09.608Z,97086.75
2024-02-19T04:21:11.146Z,97087.03
2024-02-19T04:25:14.552Z,97086.88
2024-02-19T04:29:16.104Z,97092.66
2024-02-19T04:33:17.699Z,97081.81
2024-02-19T04:37:20.652Z,97084.00
2024-02-19T04:41:22.202Z,97080.03
2024-02-19T04:45:23.816Z,97083.22
2024-02-19T04:49:25.448Z,97080.19
2024-02-19T04:53:27.322Z,97083.22
2024-02-19T04:57:28.917Z,97085.94
2024-02-19T05:01:33.845Z,97068.63
2024-02-19T05:05:36.385Z,97088.59
2024-02-19T05:09:38.151Z,97084.72
2024-02-19T05:13:39.746Z,97090.78
2024-02-19T05:17:41.315Z,97095.84
2024-02-19T05:21:43.000Z,97095.56
2024-02-19T05:25:44.663Z,97093.63
2024-02-19T05:29:46.226Z,97096.66
2024-02-19T05:33:47.835Z,97097.75
2024-02-19T05:37:49.421Z,97085.38
2024-02-19T05:41:50.961Z,97095.50
2024-02-19T05:45:54.200Z,97097.19
2024-02-19T05:49:55.966Z,97101.44
2024-02-19T05:53:57.509Z,97102.56
2024-02-19T05:57:59.216Z,97100.88
2024-02-19T06:02:01.074Z,97110.34
2024-02-19T06:06:04.139Z,97126.00
2024-02-19T06:10:07.793Z,97126.00
2024-02-19T06:14:09.432Z,97130.97
2024-02-19T06:18:11.086Z,97140.47
2024-02-19T06:22:15.294Z,97137.75
2024-02-19T06:26:17.050Z,97149.66
2024-02-19T06:30:19.901Z,97153.94
2024-02-19T06:34:22.441Z,97156.78
2024-02-19T06:38:24.084Z,97162.53
2024-02-19T06:42:25.582Z,97168.88
2024-02-19T06:46:27.290Z,97165.75
2024-02-19T06:50:28.818Z,97178.66
2024-02-19T06:54:31.965Z,97183.59
2024-02-19T06:58:34.811Z,97178.34
2024-02-19T07:02:36.660Z,97190.47
2024-02-19T07:06:38.585Z,97192.28
2024-02-19T07:10:40.782Z,97196.50
2024-02-19T07:14:43.008Z,97194.00
2024-02-19T07:18:44.813Z,97204.59
2024-02-19T07:22:46.487Z,97202.72
2024-02-19T07:26:48.098Z,97207.09
2024-02-19T07:30:49.628Z,97215.31
2024-02-19T07:34:51.190Z,97223.16
2024-02-19T07:38:52.834Z,97228.63
2024-02-19T07:42:54.412Z,97225.47
2024-02-19T07:46:55.915Z,97236.47
2024-02-19T07:50:57.479Z,97230.97
2024-02-19T07:54:59.161Z,97226.13
2024-02-19T07:59:00.663Z,97234.13
2024-02-19T08:03:02.811Z,97235.63
2024-02-19T08:07:05.014Z,97243.59
2024-02-19T08:11:06.951Z,97241.44
2024-02-19T08:15:10.045Z,97255.72
2024-02-19T08:19:11.668Z,97258.63
2024-02-19T08:23:13.436Z,97256.66
2024-02-19T08:27:15.024Z,97262.31
2024-02-19T08:31:16.620Z,97265.47
2024-02-19T08:35:18.485Z,97274.41
2024-02-19T08:39:20.229Z,97278.53
2024-02-19T08:43:21.887Z,97274.69
2024-02-19T08:47:23.674Z,97284.03
2024-02-19T08:51:25.552Z,97292.00
2024-02-19T08:55:27.296Z,97298.56
2024-02-19T08:59:28.928Z,97298.56
2024-02-19T09:03:30.588Z,97312.59
2024-02-19T09:07:33.108Z,97319.84
2024-02-19T09:11:34.822Z,97323.41
2024-02-19T09:15:36.421Z,97331.09
2024-02-19T09:19:38.187Z,97336.75
2024-02-19T09:23:39.934Z,97334.69
2024-02-19T09:27:41.564Z,97340.88
2024-02-19T09:31:43.047Z,97345.31
2024-02-19T09:35:45.517Z,97352.97
2024-02-19T09:39:51.579Z,97362.75
2024-02-19T09:43:53.246Z,97355.03
2024-02-19T09:48:01.425Z,97348.53
2024-02-19T09:52:04.425Z,97366.41
2024-02-19T09:56:08.144Z,97368.72
2024-02-19T10:00:13.423Z,97376.28
2024-02-19T10:04:16.840Z,97381.28
2024-02-19T10:08:18.551Z,97389.81
2024-02-19T10:12:20.709Z,97391.47
2024-02-19T10:16:22.302Z,97391.06
2024-02-19T10:20:23.868Z,97391.91
2024-02-19T10:24:27.203Z,97399.28
2024-02-19T10:28:29.859Z,97398.22
2024-02-19T10:32:31.505Z,97399.22
2024-02-19T10:36:34.505Z,97402.44
2024-02-19T10:40:36.554Z,97399.38
2024-02-19T10:44:38.790Z,97406.72
2024-02-19T10:48:41.567Z,97403.81
2024-02-19T10:52:43.170Z,97408.63
2024-02-19T10:56:45.482Z,97411.53
2024-02-19T11:00:47.202Z,97411.53
2024-02-19T11:04:52.696Z,97400.66
2024-02-19T11:08:57.187Z,97410.03
2024-02-19T11:13:07.436Z,97411.22
2024-02-19T11:17:09.900Z,97402.19
2024-02-19T11:21:12.067Z,97411.66
2024-02-19T11:25:13.672Z,97405.47
2024-02-19T11:29:23.482Z,97407.66
2024-02-19T11:33:26.704Z,97410.44
2024-02-19T11:37:28.318Z,97407.25
2024-02-19T11:41:30.125Z,97405.72
2024-02-19T11:45:33.891Z,97392.66
2024-02-19T11:49:35.709Z,97393.91
2024-02-19T11:53:37.769Z,97393.50
2024-02-19T11:57:39.268Z,97381.41
2024-02-19T12:01:41.011Z,97385.25
2024-02-19T12:05:43.078Z,97389.41
2024-02-19T12:09:45.035Z,97381.69
2024-02-19T12:13:47.459Z,97380.34
2024-02-19T12:17:54.202Z,97383.44
2024-02-19T12:21:55.940Z,97380.97
2024-02-19T12:25:57.524Z,97377.72
2024-02-19T12:29:59.160Z,97370.53
2024-02-19T12:34:01.111Z,97371.63
2024-02-19T12:38:02.859Z,97371.53
2024-02-19T12:42:09.515Z,97370.31
2024-02-19T12:46:15.630Z,97369.88
2024-02-19T12:50:18.660Z,97366.31
2024-02-19T12:54:21.747Z,97364.78
2024-02-19T12:58:24.296Z,97365.75
2024-02-19T13:02:25.946Z,97365.47
2024-02-19T13:06:29.006Z,97366.00
2024-02-19T13:10:32.717Z,97363.19
2024-02-19T13:14:35.466Z,97369.44
2024-02-19T13:18:37.445Z,97359.97
2024-02-19T13:22:39.200Z,97363.28
2024-02-19T13:26:40.788Z,97358.22
2024-02-19T13:30:42.565Z,97352.16
2024-02-19T13:34:44.228Z,97354.09
2024-02-19T13:38:48.703Z,97347.91
2024-02-19T13:42:50.410Z,97350.91
2024-02-19T13:46:52.097Z,97348.72
2024-02-19T13:50:57.881Z,97349.78
2024-02-19T13:54:59.816Z,97356.28
2024-02-19T13:59:01.376Z,97356.66
2024-02-19T14:03:03.133Z,97353.94
2024-02-19T14:07:05.242Z,97348.44
2024-02-19T14:11:08.140Z,97342.94
2024-02-19T14:15:10.037Z,97340.47
2024-02-19T14:19:11.792Z,97343.22
2024-02-19T14:23:13.740Z,97349.66
2024-02-19T14:27:15.397Z,97351.88
2024-02-19T14:31:17.196Z,97339.75
2024-02-19T14:35:19.067Z,97350.34
2024-02-19T14:39:21.560Z,97344.31
2024-02-19T14:43:23.445Z,97346.78
2024-02-19T14:47:25.218Z,97343.91
2024-02-19T14:51:27.031Z,97348.28
2024-02-19T14:55:28.758Z,97339.63
2024-02-19T14:59:30.455Z,97345.25
2024-02-19T15:03:33.166Z,97340.31
2024-02-19T15:07:35.783Z,97341.81
2024-02-19T15:11:37.482Z,97348.94
2024-02-19T15:15:39.013Z,97354.44
2024-02-19T15:19:40.771Z,97355.16
2024-02-19T15:23:42.694Z,97358.16
2024-02-19T15:27:44.380Z,97357.88
2024-02-19T15:31:46.407Z,97359.91
2024-02-19T15:35:48.681Z,97358.41
2024-02-19T15:39:51.013Z,97337.53
2024-02-19T15:43:55.620Z,97337.94
2024-02-19T15:47:57.904Z,97329.78
2024-02-19T15:51:59.510Z,97328.16
2024-02-19T15:56:01.211Z,97323.91
2024-02-19T16:00:03.023Z,97327.88
2024-02-19T16:04:04.794Z,97335.00
2024-02-19T16:08:32.336Z,97329.22
2024-02-19T16:12:33.902Z,97333.88
2024-02-19T16:16:35.666Z,97332.34
2024-02-19T16:20:37.330Z,97326.31
2024-02-19T16:24:38.918Z,97324.81
2024-02-19T16:28:42.025Z,97324.13
2024-02-19T16:32:43.805Z,97328.78
2024-02-19T16:36:45.889Z,97331.53
2024-02-19T16:40:47.849Z,97326.56
2024-02-19T16:44:49.492Z,97323.84
2024-02-19T16:48:51.192Z,97340.03
2024-02-19T16:52:52.804Z,97330.94
2024-02-19T16:56:54.349Z,97326.00
2024-02-19T17:00:58.993Z,97338.47
2024-02-19T17:05:03.356Z,97331.88
2024-02-19T17:09:07.210Z,97333.09
2024-02-19T17:13:08.793Z,97329.78
2024-02-19T17:17:10.595Z,97335.00
2024-02-19T17:21:12.197Z,97335.00
2024-02-19T17:25:13.914Z,97335.13
2024-02-19T17:29:15.481Z,97324.59
2024-02-19T17:33:17.174Z,97326.34
2024-02-19T17:37:19.250Z,97319.63
2024-02-19T17:41:21.084Z,97319.75
2024-02-19T17:45:22.922Z,97324.97
2024-02-19T17:49:24.833Z,97331.72
2024-02-19T17:53:26.505Z,97321.53
2024-02-19T17:57:28.024Z,97324.41
2024-02-19T18:01:29.803Z,97315.88
2024-02-19T18:05:31.651Z,97315.06
2024-02-19T18:09:33.239Z,97310.13
2024-02-19T18:13:35.171Z,97310.25
2024-02-19T18:17:37.373Z,97302.56
2024-02-19T18:21:38.951Z,97309.81
2024-02-19T18:25:40.488Z,97302.13
2024-02-19T18:29:42.625Z,97293.75
2024-02-19T18:33:44.384Z,97293.03
2024-02-19T18:37:46.108Z,97291.94
2024-02-19T18:41:48.360Z,97286.16
2024-02-19T18:45:49.934Z,97295.88
2024-02-19T18:49:51.702Z,97287.50
2024-02-19T18:53:53.433Z,97285.00
2024-02-19T18:57:55.557Z,97287.06
2024-02-19T19:01:58.967Z,97285.66
2024-02-19T19:06:04.353Z,97271.53
2024-02-19T19:10:06.871Z,97275.31
2024-02-19T19:14:10.842Z,97269.56
2024-02-19T19:18:13.063Z,97275.00
2024-02-19T19:22:19.891Z,97272.78
2024-02-19T19:26:21.608Z,97276.97
2024-02-19T19:30:25.104Z,97279.25
2024-02-19T19:34:27.955Z,97273.59
2024-02-19T19:38:30.307Z,97274.41
2024-02-19T19:42:31.891Z,97276.91
2024-02-19T19:46:34.335Z,97279.84
2024-02-19T19:50:36.932Z,97276.84
2024-02-19T19:54:39.501Z,97285.81
2024-02-19T19:58:41.165Z,97268.03
2024-02-19T20:02:45.969Z,97264.09
2024-02-19T20:06:47.847Z,97262.75
2024-02-19T20:10:49.791Z,97266.75
2024-02-19T20:14:54.140Z,97270.03
2024-02-19T20:18:58.775Z,97267.19
2024-02-19T20:23:00.532Z,97265.97
2024-02-19T20:27:03.023Z,97253.50
2024-02-19T20:31:06.960Z,97266.28
2024-02-19T20:35:09.389Z,97256.69
2024-02-19T20:39:15.141Z,97257.41
2024-02-19T20:43:16.747Z,97254.66
2024-02-19T20:47:19.765Z,97257.09
2024-02-19T20:51:21.302Z,97260.56
2024-02-19T20:55:24.206Z,97262.19
2024-02-19T20:59:25.787Z,97259.44
2024-02-19T21:03:35.506Z,97250.13
2024-02-19T21:07:44.539Z,97249.16
2024-02-19T21:11:47.235Z,97248.34
2024-02-19T21:15:49.015Z,97251.75
2024-02-19T21:19:51.124Z,97257.81
2024-02-19T21:23:52.833Z,97244.66
2024-02-19T21:27:54.420Z,97250.56
2024-02-19T21:31:56.111Z,97251.25
2024-02-19T21:36:06.062Z,97241.69
2024-02-19T21:40:10.422Z,97237.16
2024-02-19T21:44:12.816Z,97237.16
2024-02-19T21:48:14.443Z,97236.22
2024-02-19T21:52:16.132Z,97233.59
2024-02-19T21:56:18.050Z,97225.53
2024-02-19T22:00:20.681Z,97228.81
2024-02-19T22:04:22.322Z,97227.03
2024-02-19T22:08:24.647Z,97225.22
2024-02-19T22:12:26.184Z,97218.13
2024-02-19T22:16:27.788Z,97209.22
2024-02-19T22:20:30.598Z,97205.94
2024-02-19T22:24:32.132Z,97195.53
2024-02-19T22:28:33.765Z,97196.22
2024-02-19T22:32:35.350Z,97199.66
2024-02-19T22:36:36.873Z,97196.91
2024-02-19T22:40:38.603Z,97195.94
2024-02-19T22:44:41.762Z,97185.13
2024-02-19T22:48:43.373Z,97185.81
2024-02-19T22:52:46.792Z,97180.47
2024-02-19T22:56:48.654Z,97181.28
2024-02-19T23:00:51.178Z,97188.97
2024-02-19T23:04:54.309Z,97186.91
2024-02-19T23:08:55.825Z,97184.31
2024-02-19T23:12:57.904Z,97177.34
2024-02-19T23:16:59.777Z,97185.84
2024-02-19T23:21:01.519Z,97178.56
2024-02-19T23:25:03.675Z,97180.09
2024-02-19T23:29:05.248Z,97183.09
2024-02-19T23:33:06.981Z,97179.81
2024-02-19T23:37:10.550Z,97185.84
2024-02-19T23:41:12.780Z,97181.31
2024-02-19T23:45:14.469Z,97178.69
2024-02-19T23:49:16.722Z,97169.78
2024-02-19T23:53:18.399Z,97173.06
2024-02-19T23:57:20.236Z,97166.06
